sensor_id;sensor_type;location;lat;lon;timestamp;P1;durP1;ratioP1;P2;durP2;ratioP2
22064;SDS011;11197;53.110;8.468;2023-06-14T00:01:53;5.10;;;1.80;;
22064;SDS011;11197;53.110;8.468;2023-06-14T00:04:20;3.03;;;1.70;;
22064;SDS011;11197;53.110;8.468;2023-06-14T00:06:47;4.57;;;1.75;;
22064;SDS011;11197;53.110;8.468;2023-06-14T00:09:13;4.05;;;1.65;;
22064;SDS011;11197;53.110;8.468;2023-06-14T00:11:40;4.90;;;1.80;;
22064;SDS011;11197;53.110;8.468;2023-06-14T00:14:06;7.43;;;1.95;;
22064;SDS011;11197;53.110;8.468;2023-06-14T00:16:32;3.30;;;1.50;;
22064;SDS011;11197;53.110;8.468;2023-06-14T00:19:00;4.18;;;1.58;;
22064;SDS011;11197;53.110;8.468;2023-06-14T00:21:28;3.08;;;1.73;;
22064;SDS011;11197;53.110;8.468;2023-06-14T00:23:55;3.83;;;1.70;;
22064;SDS011;11197;53.110;8.468;2023-06-14T00:26:22;4.32;;;1.92;;
22064;SDS011;11197;53.110;8.468;2023-06-14T00:28:48;6.00;;;1.80;;
22064;SDS011;11197;53.110;8.468;2023-06-14T00:31:14;4.13;;;1.77;;
22064;SDS011;11197;53.110;8.468;2023-06-14T00:33:39;3.97;;;2.00;;
22064;SDS011;11197;53.110;8.468;2023-06-14T00:36:05;6.72;;;2.03;;
22064;SDS011;11197;53.110;8.468;2023-06-14T00:38:31;3.40;;;1.70;;
22064;SDS011;11197;53.110;8.468;2023-06-14T00:40:57;3.72;;;1.83;;
22064;SDS011;11197;53.110;8.468;2023-06-14T00:43:22;5.05;;;2.05;;
22064;SDS011;11197;53.110;8.468;2023-06-14T00:45:48;6.05;;;2.00;;
22064;SDS011;11197;53.110;8.468;2023-06-14T00:48:14;4.88;;;1.75;;
22064;SDS011;11197;53.110;8.468;2023-06-14T00:50:42;4.38;;;1.70;;
22064;SDS011;11197;53.110;8.468;2023-06-14T00:53:11;4.82;;;2.03;;
22064;SDS011;11197;53.110;8.468;2023-06-14T00:55:37;5.20;;;2.10;;
22064;SDS011;11197;53.110;8.468;2023-06-14T00:58:03;4.95;;;1.88;;
22064;SDS011;11197;53.110;8.468;2023-06-14T01:00:29;7.20;;;2.20;;
22064;SDS011;11197;53.110;8.468;2023-06-14T01:02:55;5.88;;;2.17;;
22064;SDS011;11197;53.110;8.468;2023-06-14T01:05:22;3.03;;;1.80;;
22064;SDS011;11197;53.110;8.468;2023-06-14T01:10:42;4.25;;;2.00;;
22064;SDS011;11197;53.110;8.468;2023-06-14T01:15:48;7.03;;;2.03;;
22064;SDS011;11197;53.110;8.468;2023-06-14T01:18:16;3.65;;;1.95;;
22064;SDS011;11197;53.110;8.468;2023-06-14T01:20:43;4.78;;;2.10;;
22064;SDS011;11197;53.110;8.468;2023-06-14T01:23:16;5.88;;;2.00;;
22064;SDS011;11197;53.110;8.468;2023-06-14T01:25:42;4.43;;;2.15;;
22064;SDS011;11197;53.110;8.468;2023-06-14T01:28:10;5.13;;;2.30;;
22064;SDS011;11197;53.110;8.468;2023-06-14T01:30:41;4.70;;;2.25;;
22064;SDS011;11197;53.110;8.468;2023-06-14T01:33:13;4.78;;;2.05;;
22064;SDS011;11197;53.110;8.468;2023-06-14T01:35:42;4.75;;;2.10;;
22064;SDS011;11197;53.110;8.468;2023-06-14T01:38:08;4.45;;;2.20;;
22064;SDS011;11197;53.110;8.468;2023-06-14T01:40:34;5.43;;;2.40;;
22064;SDS011;11197;53.110;8.468;2023-06-14T01:43:01;4.07;;;2.00;;
22064;SDS011;11197;53.110;8.468;2023-06-14T01:45:29;5.50;;;2.20;;
22064;SDS011;11197;53.110;8.468;2023-06-14T01:47:56;4.80;;;2.10;;
22064;SDS011;11197;53.110;8.468;2023-06-14T01:50:22;5.32;;;2.33;;
22064;SDS011;11197;53.110;8.468;2023-06-14T01:52:48;3.88;;;2.00;;
22064;SDS011;11197;53.110;8.468;2023-06-14T01:55:13;5.15;;;2.10;;
22064;SDS011;11197;53.110;8.468;2023-06-14T01:57:40;6.13;;;2.58;;
22064;SDS011;11197;53.110;8.468;2023-06-14T02:00:06;5.88;;;2.35;;
22064;SDS011;11197;53.110;8.468;2023-06-14T02:02:38;4.60;;;2.17;;
22064;SDS011;11197;53.110;8.468;2023-06-14T02:05:04;4.55;;;2.30;;
22064;SDS011;11197;53.110;8.468;2023-06-14T02:07:30;3.63;;;2.40;;
22064;SDS011;11197;53.110;8.468;2023-06-14T02:09:56;7.00;;;2.25;;
22064;SDS011;11197;53.110;8.468;2023-06-14T02:12:22;5.18;;;2.70;;
22064;SDS011;11197;53.110;8.468;2023-06-14T02:14:47;3.97;;;2.40;;
22064;SDS011;11197;53.110;8.468;2023-06-14T02:17:14;5.03;;;2.20;;
22064;SDS011;11197;53.110;8.468;2023-06-14T02:19:40;8.10;;;2.55;;
22064;SDS011;11197;53.110;8.468;2023-06-14T02:22:06;4.72;;;2.55;;
22064;SDS011;11197;53.110;8.468;2023-06-14T02:24:33;5.80;;;2.53;;
22064;SDS011;11197;53.110;8.468;2023-06-14T02:27:00;4.68;;;2.33;;
22064;SDS011;11197;53.110;8.468;2023-06-14T02:29:26;5.05;;;2.67;;
22064;SDS011;11197;53.110;8.468;2023-06-14T02:31:52;6.35;;;2.78;;
22064;SDS011;11197;53.110;8.468;2023-06-14T02:34:19;4.80;;;2.60;;
22064;SDS011;11197;53.110;8.468;2023-06-14T02:36:47;6.95;;;2.58;;
22064;SDS011;11197;53.110;8.468;2023-06-14T02:39:13;4.60;;;2.45;;
22064;SDS011;11197;53.110;8.468;2023-06-14T02:41:39;7.25;;;3.13;;
22064;SDS011;11197;53.110;8.468;2023-06-14T02:44:05;7.47;;;2.95;;
22064;SDS011;11197;53.110;8.468;2023-06-14T02:46:31;7.20;;;3.10;;
22064;SDS011;11197;53.110;8.468;2023-06-14T02:48:57;8.27;;;3.30;;
22064;SDS011;11197;53.110;8.468;2023-06-14T02:51:23;7.22;;;3.42;;
22064;SDS011;11197;53.110;8.468;2023-06-14T02:53:48;8.32;;;3.40;;
22064;SDS011;11197;53.110;8.468;2023-06-14T02:56:15;5.50;;;3.30;;
22064;SDS011;11197;53.110;8.468;2023-06-14T02:58:42;9.13;;;3.40;;
22064;SDS011;11197;53.110;8.468;2023-06-14T03:01:09;5.95;;;3.20;;
22064;SDS011;11197;53.110;8.468;2023-06-14T03:03:38;7.35;;;3.80;;
22064;SDS011;11197;53.110;8.468;2023-06-14T03:06:03;6.75;;;3.65;;
22064;SDS011;11197;53.110;8.468;2023-06-14T03:08:32;10.52;;;3.90;;
22064;SDS011;11197;53.110;8.468;2023-06-14T03:11:05;8.10;;;3.53;;
22064;SDS011;11197;53.110;8.468;2023-06-14T03:13:31;7.28;;;3.80;;
22064;SDS011;11197;53.110;8.468;2023-06-14T03:15:58;8.88;;;3.70;;
22064;SDS011;11197;53.110;8.468;2023-06-14T03:18:24;6.25;;;3.42;;
22064;SDS011;11197;53.110;8.468;2023-06-14T03:20:50;8.02;;;3.38;;
22064;SDS011;11197;53.110;8.468;2023-06-14T03:23:17;6.43;;;3.70;;
22064;SDS011;11197;53.110;8.468;2023-06-14T03:25:43;7.63;;;3.70;;
22064;SDS011;11197;53.110;8.468;2023-06-14T03:28:12;6.07;;;3.67;;
22064;SDS011;11197;53.110;8.468;2023-06-14T03:30:37;6.30;;;3.13;;
22064;SDS011;11197;53.110;8.468;2023-06-14T03:33:04;7.60;;;3.75;;
22064;SDS011;11197;53.110;8.468;2023-06-14T03:35:33;8.55;;;3.75;;
22064;SDS011;11197;53.110;8.468;2023-06-14T03:37:59;9.23;;;4.13;;
22064;SDS011;11197;53.110;8.468;2023-06-14T03:40:25;10.55;;;4.72;;
22064;SDS011;11197;53.110;8.468;2023-06-14T03:42:54;12.68;;;4.35;;
22064;SDS011;11197;53.110;8.468;2023-06-14T03:45:20;6.80;;;3.97;;
22064;SDS011;11197;53.110;8.468;2023-06-14T03:47:46;5.70;;;3.50;;
22064;SDS011;11197;53.110;8.468;2023-06-14T03:50:12;8.13;;;3.80;;
22064;SDS011;11197;53.110;8.468;2023-06-14T03:52:38;9.98;;;3.70;;
22064;SDS011;11197;53.110;8.468;2023-06-14T03:55:07;6.95;;;3.40;;
22064;SDS011;11197;53.110;8.468;2023-06-14T03:57:33;9.27;;;3.50;;
22064;SDS011;11197;53.110;8.468;2023-06-14T03:59:59;6.60;;;3.15;;
22064;SDS011;11197;53.110;8.468;2023-06-14T04:02:28;5.25;;;2.90;;
22064;SDS011;11197;53.110;8.468;2023-06-14T04:05:02;4.20;;;2.90;;
22064;SDS011;11197;53.110;8.468;2023-06-14T04:07:28;7.07;;;2.83;;
22064;SDS011;11197;53.110;8.468;2023-06-14T04:09:55;10.43;;;3.17;;
22064;SDS011;11197;53.110;8.468;2023-06-14T04:12:21;5.80;;;2.88;;
22064;SDS011;11197;53.110;8.468;2023-06-14T04:14:47;6.75;;;3.17;;
22064;SDS011;11197;53.110;8.468;2023-06-14T04:17:12;5.18;;;2.90;;
22064;SDS011;11197;53.110;8.468;2023-06-14T04:19:42;5.80;;;2.67;;
22064;SDS011;11197;53.110;8.468;2023-06-14T04:22:08;7.10;;;3.03;;
22064;SDS011;11197;53.110;8.468;2023-06-14T04:24:36;5.95;;;3.00;;
22064;SDS011;11197;53.110;8.468;2023-06-14T04:27:02;6.60;;;3.13;;
22064;SDS011;11197;53.110;8.468;2023-06-14T04:29:29;4.78;;;2.92;;
22064;SDS011;11197;53.110;8.468;2023-06-14T04:32:00;7.15;;;2.78;;
22064;SDS011;11197;53.110;8.468;2023-06-14T04:34:27;4.93;;;3.50;;
22064;SDS011;11197;53.110;8.468;2023-06-14T04:36:59;7.30;;;3.13;;
22064;SDS011;11197;53.110;8.468;2023-06-14T04:39:30;6.13;;;3.50;;
22064;SDS011;11197;53.110;8.468;2023-06-14T04:41:58;6.35;;;3.38;;
22064;SDS011;11197;53.110;8.468;2023-06-14T04:44:26;9.55;;;3.50;;
22064;SDS011;11197;53.110;8.468;2023-06-14T04:46:56;6.47;;;2.97;;
22064;SDS011;11197;53.110;8.468;2023-06-14T04:49:24;5.28;;;3.08;;
22064;SDS011;11197;53.110;8.468;2023-06-14T04:51:52;6.50;;;3.10;;
22064;SDS011;11197;53.110;8.468;2023-06-14T04:54:23;5.20;;;3.00;;
22064;SDS011;11197;53.110;8.468;2023-06-14T04:56:52;7.28;;;3.40;;
22064;SDS011;11197;53.110;8.468;2023-06-14T04:59:21;9.30;;;4.20;;
22064;SDS011;11197;53.110;8.468;2023-06-14T05:01:50;7.22;;;3.90;;
22064;SDS011;11197;53.110;8.468;2023-06-14T05:04:17;9.73;;;3.78;;
22064;SDS011;11197;53.110;8.468;2023-06-14T05:06:44;10.55;;;3.65;;
22064;SDS011;11197;53.110;8.468;2023-06-14T05:09:14;9.02;;;4.00;;
22064;SDS011;11197;53.110;8.468;2023-06-14T05:11:43;7.30;;;3.72;;
22064;SDS011;11197;53.110;8.468;2023-06-14T05:14:13;11.85;;;3.90;;
22064;SDS011;11197;53.110;8.468;2023-06-14T05:16:40;10.27;;;3.70;;
22064;SDS011;11197;53.110;8.468;2023-06-14T05:19:06;13.30;;;3.53;;
22064;SDS011;11197;53.110;8.468;2023-06-14T05:21:32;13.07;;;3.70;;
22064;SDS011;11197;53.110;8.468;2023-06-14T05:24:00;12.38;;;3.55;;
22064;SDS011;11197;53.110;8.468;2023-06-14T05:26:26;8.85;;;3.55;;
22064;SDS011;11197;53.110;8.468;2023-06-14T05:28:58;11.20;;;3.58;;
22064;SDS011;11197;53.110;8.468;2023-06-14T05:31:25;10.68;;;4.00;;
22064;SDS011;11197;53.110;8.468;2023-06-14T05:33:52;13.85;;;3.97;;
22064;SDS011;11197;53.110;8.468;2023-06-14T05:36:18;9.48;;;3.80;;
22064;SDS011;11197;53.110;8.468;2023-06-14T05:38:45;9.65;;;3.50;;
22064;SDS011;11197;53.110;8.468;2023-06-14T05:41:10;10.88;;;4.47;;
22064;SDS011;11197;53.110;8.468;2023-06-14T05:43:36;9.88;;;3.53;;
22064;SDS011;11197;53.110;8.468;2023-06-14T05:46:02;11.88;;;3.40;;
22064;SDS011;11197;53.110;8.468;2023-06-14T05:48:28;14.77;;;4.00;;
22064;SDS011;11197;53.110;8.468;2023-06-14T05:50:55;7.78;;;3.80;;
22064;SDS011;11197;53.110;8.468;2023-06-14T05:53:21;7.18;;;3.22;;
22064;SDS011;11197;53.110;8.468;2023-06-14T05:55:47;7.35;;;3.40;;
22064;SDS011;11197;53.110;8.468;2023-06-14T05:58:12;11.45;;;3.50;;
22064;SDS011;11197;53.110;8.468;2023-06-14T06:00:39;11.23;;;3.10;;
22064;SDS011;11197;53.110;8.468;2023-06-14T06:03:05;7.82;;;3.22;;
22064;SDS011;11197;53.110;8.468;2023-06-14T06:05:33;7.20;;;3.20;;
22064;SDS011;11197;53.110;8.468;2023-06-14T06:07:59;11.07;;;3.10;;
22064;SDS011;11197;53.110;8.468;2023-06-14T06:10:25;9.43;;;3.05;;
22064;SDS011;11197;53.110;8.468;2023-06-14T06:12:51;8.15;;;3.28;;
22064;SDS011;11197;53.110;8.468;2023-06-14T06:15:17;7.38;;;3.25;;
22064;SDS011;11197;53.110;8.468;2023-06-14T06:17:44;7.82;;;3.42;;
22064;SDS011;11197;53.110;8.468;2023-06-14T06:20:09;11.07;;;3.20;;
22064;SDS011;11197;53.110;8.468;2023-06-14T06:22:37;7.78;;;3.20;;
22064;SDS011;11197;53.110;8.468;2023-06-14T06:25:03;9.40;;;3.45;;
22064;SDS011;11197;53.110;8.468;2023-06-14T06:27:29;8.38;;;3.40;;
22064;SDS011;11197;53.110;8.468;2023-06-14T06:29:54;7.95;;;3.42;;
22064;SDS011;11197;53.110;8.468;2023-06-14T06:32:20;8.68;;;3.35;;
22064;SDS011;11197;53.110;8.468;2023-06-14T06:34:46;7.07;;;3.38;;
22064;SDS011;11197;53.110;8.468;2023-06-14T06:37:12;8.98;;;3.50;;
22064;SDS011;11197;53.110;8.468;2023-06-14T06:39:38;10.98;;;3.20;;
22064;SDS011;11197;53.110;8.468;2023-06-14T06:42:04;6.15;;;3.50;;
22064;SDS011;11197;53.110;8.468;2023-06-14T06:44:35;9.38;;;3.78;;
22064;SDS011;11197;53.110;8.468;2023-06-14T06:47:01;8.18;;;3.40;;
22064;SDS011;11197;53.110;8.468;2023-06-14T06:49:27;7.60;;;3.40;;
22064;SDS011;11197;53.110;8.468;2023-06-14T06:51:59;9.57;;;3.58;;
22064;SDS011;11197;53.110;8.468;2023-06-14T06:54:27;8.18;;;3.78;;
22064;SDS011;11197;53.110;8.468;2023-06-14T06:56:53;7.75;;;3.58;;
22064;SDS011;11197;53.110;8.468;2023-06-14T06:59:18;6.43;;;3.35;;
22064;SDS011;11197;53.110;8.468;2023-06-14T07:01:44;10.05;;;3.60;;
22064;SDS011;11197;53.110;8.468;2023-06-14T07:04:10;7.93;;;3.30;;
22064;SDS011;11197;53.110;8.468;2023-06-14T07:06:37;8.93;;;3.28;;
22064;SDS011;11197;53.110;8.468;2023-06-14T07:09:03;6.65;;;3.25;;
22064;SDS011;11197;53.110;8.468;2023-06-14T07:11:31;6.55;;;2.80;;
22064;SDS011;11197;53.110;8.468;2023-06-14T07:13:57;7.07;;;3.30;;
22064;SDS011;11197;53.110;8.468;2023-06-14T07:16:23;5.80;;;2.90;;
22064;SDS011;11197;53.110;8.468;2023-06-14T07:18:48;8.00;;;2.63;;
22064;SDS011;11197;53.110;8.468;2023-06-14T07:21:14;8.23;;;2.60;;
22064;SDS011;11197;53.110;8.468;2023-06-14T07:23:40;5.65;;;2.60;;
22064;SDS011;11197;53.110;8.468;2023-06-14T07:26:06;7.85;;;2.70;;
22064;SDS011;11197;53.110;8.468;2023-06-14T07:28:31;4.93;;;2.38;;
22064;SDS011;11197;53.110;8.468;2023-06-14T07:30:57;8.00;;;2.67;;
22064;SDS011;11197;53.110;8.468;2023-06-14T07:33:23;6.65;;;2.50;;
22064;SDS011;11197;53.110;8.468;2023-06-14T07:35:48;5.80;;;2.33;;
22064;SDS011;11197;53.110;8.468;2023-06-14T07:38:15;6.28;;;2.42;;
22064;SDS011;11197;53.110;8.468;2023-06-14T07:40:40;5.13;;;2.50;;
22064;SDS011;11197;53.110;8.468;2023-06-14T07:43:06;5.80;;;2.40;;
22064;SDS011;11197;53.110;8.468;2023-06-14T07:45:32;3.85;;;2.35;;
22064;SDS011;11197;53.110;8.468;2023-06-14T07:47:57;4.72;;;2.20;;
22064;SDS011;11197;53.110;8.468;2023-06-14T07:50:23;4.07;;;2.13;;
22064;SDS011;11197;53.110;8.468;2023-06-14T07:52:49;5.45;;;2.25;;
22064;SDS011;11197;53.110;8.468;2023-06-14T07:55:15;5.35;;;2.40;;
22064;SDS011;11197;53.110;8.468;2023-06-14T07:57:41;7.55;;;2.40;;
22064;SDS011;11197;53.110;8.468;2023-06-14T08:00:08;5.82;;;2.40;;
22064;SDS011;11197;53.110;8.468;2023-06-14T08:02:39;5.15;;;2.10;;
22064;SDS011;11197;53.110;8.468;2023-06-14T08:05:05;5.60;;;1.92;;
22064;SDS011;11197;53.110;8.468;2023-06-14T08:07:31;7.05;;;2.03;;
22064;SDS011;11197;53.110;8.468;2023-06-14T08:09:56;4.10;;;1.90;;
22064;SDS011;11197;53.110;8.468;2023-06-14T08:12:22;4.80;;;1.90;;
22064;SDS011;11197;53.110;8.468;2023-06-14T08:14:48;4.38;;;1.90;;
22064;SDS011;11197;53.110;8.468;2023-06-14T08:17:13;2.88;;;1.65;;
22064;SDS011;11197;53.110;8.468;2023-06-14T08:19:39;4.35;;;1.90;;
22064;SDS011;11197;53.110;8.468;2023-06-14T08:22:06;7.78;;;2.13;;
22064;SDS011;11197;53.110;8.468;2023-06-14T08:24:31;4.80;;;1.70;;
22064;SDS011;11197;53.110;8.468;2023-06-14T08:26:57;4.22;;;1.90;;
22064;SDS011;11197;53.110;8.468;2023-06-14T08:29:26;5.80;;;1.83;;
22064;SDS011;11197;53.110;8.468;2023-06-14T08:31:54;3.55;;;1.90;;
22064;SDS011;11197;53.110;8.468;2023-06-14T08:34:20;6.40;;;1.90;;
22064;SDS011;11197;53.110;8.468;2023-06-14T08:36:46;3.83;;;1.80;;
22064;SDS011;11197;53.110;8.468;2023-06-14T08:39:11;3.30;;;1.73;;
22064;SDS011;11197;53.110;8.468;2023-06-14T08:41:38;4.95;;;1.90;;
22064;SDS011;11197;53.110;8.468;2023-06-14T08:44:04;6.38;;;1.90;;
22064;SDS011;11197;53.110;8.468;2023-06-14T08:46:30;3.13;;;1.67;;
22064;SDS011;11197;53.110;8.468;2023-06-14T08:48:59;6.00;;;2.00;;
22064;SDS011;11197;53.110;8.468;2023-06-14T08:51:26;3.53;;;1.70;;
22064;SDS011;11197;53.110;8.468;2023-06-14T08:53:59;6.93;;;1.83;;
22064;SDS011;11197;53.110;8.468;2023-06-14T08:56:27;3.13;;;1.90;;
22064;SDS011;11197;53.110;8.468;2023-06-14T08:58:54;2.90;;;1.70;;
22064;SDS011;11197;53.110;8.468;2023-06-14T09:01:21;6.35;;;2.00;;
22064;SDS011;11197;53.110;8.468;2023-06-14T09:03:49;2.75;;;1.80;;
22064;SDS011;11197;53.110;8.468;2023-06-14T09:06:15;4.53;;;1.88;;
22064;SDS011;11197;53.110;8.468;2023-06-14T09:08:42;5.38;;;2.28;;
22064;SDS011;11197;53.110;8.468;2023-06-14T09:11:11;4.88;;;2.10;;
22064;SDS011;11197;53.110;8.468;2023-06-14T09:13:39;8.80;;;2.10;;
22064;SDS011;11197;53.110;8.468;2023-06-14T09:16:06;8.27;;;2.25;;
22064;SDS011;11197;53.110;8.468;2023-06-14T09:18:35;8.52;;;2.95;;
22064;SDS011;11197;53.110;8.468;2023-06-14T09:21:08;8.73;;;2.28;;
22064;SDS011;11197;53.110;8.468;2023-06-14T09:23:38;6.65;;;2.00;;
22064;SDS011;11197;53.110;8.468;2023-06-14T09:26:12;4.90;;;2.28;;
22064;SDS011;11197;53.110;8.468;2023-06-14T09:31:11;3.08;;;1.80;;
22064;SDS011;11197;53.110;8.468;2023-06-14T09:33:38;5.93;;;2.28;;
22064;SDS011;11197;53.110;8.468;2023-06-14T09:36:09;4.25;;;2.20;;
22064;SDS011;11197;53.110;8.468;2023-06-14T09:38:35;4.53;;;2.25;;
22064;SDS011;11197;53.110;8.468;2023-06-14T09:41:01;4.25;;;1.85;;
22064;SDS011;11197;53.110;8.468;2023-06-14T09:43:29;4.60;;;2.08;;
22064;SDS011;11197;53.110;8.468;2023-06-14T09:45:54;5.38;;;1.90;;
22064;SDS011;11197;53.110;8.468;2023-06-14T09:48:21;4.53;;;2.03;;
22064;SDS011;11197;53.110;8.468;2023-06-14T09:50:46;5.03;;;1.90;;
22064;SDS011;11197;53.110;8.468;2023-06-14T09:53:15;3.22;;;1.80;;
22064;SDS011;11197;53.110;8.468;2023-06-14T09:55:44;2.67;;;1.80;;
22064;SDS011;11197;53.110;8.468;2023-06-14T09:58:11;2.97;;;1.80;;
22064;SDS011;11197;53.110;8.468;2023-06-14T10:00:39;4.22;;;1.90;;
22064;SDS011;11197;53.110;8.468;2023-06-14T10:03:06;5.25;;;2.00;;
22064;SDS011;11197;53.110;8.468;2023-06-14T10:05:37;4.35;;;1.85;;
22064;SDS011;11197;53.110;8.468;2023-06-14T10:08:10;5.10;;;1.75;;
22064;SDS011;11197;53.110;8.468;2023-06-14T10:10:42;2.97;;;1.80;;
22064;SDS011;11197;53.110;8.468;2023-06-14T10:13:08;4.57;;;2.00;;
22064;SDS011;11197;53.110;8.468;2023-06-14T10:15:41;3.88;;;1.80;;
22064;SDS011;11197;53.110;8.468;2023-06-14T10:18:14;3.88;;;1.90;;
22064;SDS011;11197;53.110;8.468;2023-06-14T10:20:55;8.50;;;2.08;;
22064;SDS011;11197;53.110;8.468;2023-06-14T10:23:44;5.00;;;1.88;;
22064;SDS011;11197;53.110;8.468;2023-06-14T10:26:20;4.63;;;1.83;;
22064;SDS011;11197;53.110;8.468;2023-06-14T10:29:00;4.43;;;2.03;;
22064;SDS011;11197;53.110;8.468;2023-06-14T10:31:45;3.47;;;1.70;;
22064;SDS011;11197;53.110;8.468;2023-06-14T10:34:22;2.97;;;1.90;;
22064;SDS011;11197;53.110;8.468;2023-06-14T10:37:02;5.05;;;1.90;;
22064;SDS011;11197;53.110;8.468;2023-06-14T10:39:28;4.18;;;2.10;;
22064;SDS011;11197;53.110;8.468;2023-06-14T10:41:55;4.18;;;2.00;;
22064;SDS011;11197;53.110;8.468;2023-06-14T10:46:48;6.70;;;2.40;;
22064;SDS011;11197;53.110;8.468;2023-06-14T10:52:13;7.22;;;2.20;;
22064;SDS011;11197;53.110;8.468;2023-06-14T10:57:49;6.35;;;2.10;;
22064;SDS011;11197;53.110;8.468;2023-06-14T11:00:20;3.25;;;1.85;;
22064;SDS011;11197;53.110;8.468;2023-06-14T11:06:01;3.63;;;2.00;;
22064;SDS011;11197;53.110;8.468;2023-06-14T11:09:02;4.03;;;2.00;;
22064;SDS011;11197;53.110;8.468;2023-06-14T11:11:44;4.00;;;2.00;;
22064;SDS011;11197;53.110;8.468;2023-06-14T11:14:12;5.22;;;2.25;;
22064;SDS011;11197;53.110;8.468;2023-06-14T11:16:38;4.00;;;2.28;;
22064;SDS011;11197;53.110;8.468;2023-06-14T11:19:03;5.35;;;2.33;;
22064;SDS011;11197;53.110;8.468;2023-06-14T11:21:32;4.13;;;2.15;;
22064;SDS011;11197;53.110;8.468;2023-06-14T11:23:58;4.80;;;2.17;;
22064;SDS011;11197;53.110;8.468;2023-06-14T11:26:24;3.35;;;2.38;;
22064;SDS011;11197;53.110;8.468;2023-06-14T11:28:54;5.47;;;2.13;;
22064;SDS011;11197;53.110;8.468;2023-06-14T11:33:51;6.30;;;2.45;;
22064;SDS011;11197;53.110;8.468;2023-06-14T11:36:19;4.85;;;2.35;;
22064;SDS011;11197;53.110;8.468;2023-06-14T11:38:45;5.57;;;2.38;;
22064;SDS011;11197;53.110;8.468;2023-06-14T11:41:11;6.28;;;2.42;;
22064;SDS011;11197;53.110;8.468;2023-06-14T11:43:36;6.82;;;2.30;;
22064;SDS011;11197;53.110;8.468;2023-06-14T11:46:02;5.22;;;2.10;;
22064;SDS011;11197;53.110;8.468;2023-06-14T11:48:41;9.15;;;2.20;;
22064;SDS011;11197;53.110;8.468;2023-06-14T11:51:07;5.60;;;2.23;;
22064;SDS011;11197;53.110;8.468;2023-06-14T11:53:33;5.00;;;2.50;;
22064;SDS011;11197;53.110;8.468;2023-06-14T11:55:59;8.23;;;2.22;;
22064;SDS011;11197;53.110;8.468;2023-06-14T11:58:26;5.40;;;2.28;;
22064;SDS011;11197;53.110;8.468;2023-06-14T12:00:54;3.53;;;2.20;;
22064;SDS011;11197;53.110;8.468;2023-06-14T12:03:23;3.25;;;2.40;;
22064;SDS011;11197;53.110;8.468;2023-06-14T12:06:04;4.57;;;2.38;;
22064;SDS011;11197;53.110;8.468;2023-06-14T12:08:35;7.07;;;2.60;;
22064;SDS011;11197;53.110;8.468;2023-06-14T12:11:05;5.40;;;2.45;;
22064;SDS011;11197;53.110;8.468;2023-06-14T12:13:41;6.13;;;2.47;;
22064;SDS011;11197;53.110;8.468;2023-06-14T12:16:08;6.38;;;2.40;;
22064;SDS011;11197;53.110;8.468;2023-06-14T12:18:35;5.53;;;2.40;;
22064;SDS011;11197;53.110;8.468;2023-06-14T12:21:03;8.13;;;2.50;;
22064;SDS011;11197;53.110;8.468;2023-06-14T12:26:18;4.30;;;2.50;;
22064;SDS011;11197;53.110;8.468;2023-06-14T12:28:45;4.30;;;2.47;;
22064;SDS011;11197;53.110;8.468;2023-06-14T12:31:12;6.45;;;2.20;;
22064;SDS011;11197;53.110;8.468;2023-06-14T12:33:39;5.25;;;2.40;;
22064;SDS011;11197;53.110;8.468;2023-06-14T12:36:09;5.15;;;2.30;;
22064;SDS011;11197;53.110;8.468;2023-06-14T12:38:36;6.28;;;2.65;;
22064;SDS011;11197;53.110;8.468;2023-06-14T12:41:02;4.10;;;2.30;;
22064;SDS011;11197;53.110;8.468;2023-06-14T12:43:28;4.45;;;2.10;;
22064;SDS011;11197;53.110;8.468;2023-06-14T12:45:53;6.47;;;2.17;;
22064;SDS011;11197;53.110;8.468;2023-06-14T12:48:19;5.72;;;2.30;;
22064;SDS011;11197;53.110;8.468;2023-06-14T12:50:46;4.40;;;2.17;;
22064;SDS011;11197;53.110;8.468;2023-06-14T12:53:12;4.35;;;2.40;;
22064;SDS011;11197;53.110;8.468;2023-06-14T12:55:37;4.50;;;2.40;;
22064;SDS011;11197;53.110;8.468;2023-06-14T12:58:03;6.80;;;2.42;;
22064;SDS011;11197;53.110;8.468;2023-06-14T13:00:29;6.03;;;2.40;;
22064;SDS011;11197;53.110;8.468;2023-06-14T13:02:58;4.40;;;2.30;;
22064;SDS011;11197;53.110;8.468;2023-06-14T13:05:24;4.55;;;2.50;;
22064;SDS011;11197;53.110;8.468;2023-06-14T13:07:50;5.30;;;2.97;;
22064;SDS011;11197;53.110;8.468;2023-06-14T13:10:16;5.35;;;2.45;;
22064;SDS011;11197;53.110;8.468;2023-06-14T13:12:42;8.45;;;2.42;;
22064;SDS011;11197;53.110;8.468;2023-06-14T13:15:08;9.98;;;2.50;;
22064;SDS011;11197;53.110;8.468;2023-06-14T13:17:34;6.30;;;2.58;;
22064;SDS011;11197;53.110;8.468;2023-06-14T13:20:06;8.15;;;2.53;;
22064;SDS011;11197;53.110;8.468;2023-06-14T13:22:33;5.80;;;2.40;;
22064;SDS011;11197;53.110;8.468;2023-06-14T13:24:59;5.78;;;2.53;;
22064;SDS011;11197;53.110;8.468;2023-06-14T13:27:26;4.53;;;2.80;;
22064;SDS011;11197;53.110;8.468;2023-06-14T13:29:52;4.93;;;2.70;;
22064;SDS011;11197;53.110;8.468;2023-06-14T13:32:18;4.32;;;2.08;;
22064;SDS011;11197;53.110;8.468;2023-06-14T13:34:46;6.32;;;2.40;;
22064;SDS011;11197;53.110;8.468;2023-06-14T13:37:12;7.05;;;2.67;;
22064;SDS011;11197;53.110;8.468;2023-06-14T13:39:37;6.28;;;2.72;;
22064;SDS011;11197;53.110;8.468;2023-06-14T13:42:04;5.78;;;2.50;;
22064;SDS011;11197;53.110;8.468;2023-06-14T13:44:29;9.13;;;2.53;;
22064;SDS011;11197;53.110;8.468;2023-06-14T13:46:55;10.50;;;3.17;;
22064;SDS011;11197;53.110;8.468;2023-06-14T13:49:21;7.82;;;2.70;;
22064;SDS011;11197;53.110;8.468;2023-06-14T13:51:47;6.45;;;2.40;;
22064;SDS011;11197;53.110;8.468;2023-06-14T13:54:13;4.72;;;2.47;;
22064;SDS011;11197;53.110;8.468;2023-06-14T13:56:40;4.57;;;2.55;;
22064;SDS011;11197;53.110;8.468;2023-06-14T13:59:06;9.75;;;2.63;;
22064;SDS011;11197;53.110;8.468;2023-06-14T14:01:32;6.43;;;2.50;;
22064;SDS011;11197;53.110;8.468;2023-06-14T14:03:58;5.85;;;2.38;;
22064;SDS011;11197;53.110;8.468;2023-06-14T14:06:25;7.03;;;2.55;;
22064;SDS011;11197;53.110;8.468;2023-06-14T14:08:51;5.82;;;2.55;;
22064;SDS011;11197;53.110;8.468;2023-06-14T14:11:18;3.95;;;2.33;;
22064;SDS011;11197;53.110;8.468;2023-06-14T14:13:44;7.05;;;2.65;;
22064;SDS011;11197;53.110;8.468;2023-06-14T14:16:10;6.65;;;2.60;;
22064;SDS011;11197;53.110;8.468;2023-06-14T14:18:35;6.32;;;2.65;;
22064;SDS011;11197;53.110;8.468;2023-06-14T14:21:02;6.03;;;2.33;;
22064;SDS011;11197;53.110;8.468;2023-06-14T14:23:28;3.75;;;2.40;;
22064;SDS011;11197;53.110;8.468;2023-06-14T14:25:54;5.65;;;2.67;;
22064;SDS011;11197;53.110;8.468;2023-06-14T14:28:19;5.18;;;2.47;;
22064;SDS011;11197;53.110;8.468;2023-06-14T14:30:46;5.63;;;2.40;;
22064;SDS011;11197;53.110;8.468;2023-06-14T14:33:12;6.68;;;2.38;;
22064;SDS011;11197;53.110;8.468;2023-06-14T14:35:46;3.70;;;2.30;;
22064;SDS011;11197;53.110;8.468;2023-06-14T14:38:15;6.13;;;2.30;;
22064;SDS011;11197;53.110;8.468;2023-06-14T14:40:41;4.90;;;2.28;;
22064;SDS011;11197;53.110;8.468;2023-06-14T14:43:08;12.38;;;2.78;;
22064;SDS011;11197;53.110;8.468;2023-06-14T14:45:34;5.25;;;2.55;;
22064;SDS011;11197;53.110;8.468;2023-06-14T14:48:01;12.85;;;2.85;;
22064;SDS011;11197;53.110;8.468;2023-06-14T14:50:28;12.93;;;2.65;;
22064;SDS011;11197;53.110;8.468;2023-06-14T14:52:53;17.35;;;3.17;;
22064;SDS011;11197;53.110;8.468;2023-06-14T14:55:19;9.95;;;2.95;;
22064;SDS011;11197;53.110;8.468;2023-06-14T14:57:45;7.32;;;2.20;;
22064;SDS011;11197;53.110;8.468;2023-06-14T15:00:12;10.27;;;2.78;;
22064;SDS011;11197;53.110;8.468;2023-06-14T15:02:39;6.72;;;2.58;;
22064;SDS011;11197;53.110;8.468;2023-06-14T15:05:05;7.07;;;2.50;;
22064;SDS011;11197;53.110;8.468;2023-06-14T15:07:31;7.35;;;2.63;;
22064;SDS011;11197;53.110;8.468;2023-06-14T15:09:58;6.03;;;2.47;;
22064;SDS011;11197;53.110;8.468;2023-06-14T15:12:24;7.25;;;2.55;;